createdAt,value
2022-12-06T03:46:28.433Z,74.33
2022-12-06T03:50:36.474Z,74.06
2022-12-06T03:54:40.594Z,73.82
2022-12-06T03:58:43.702Z,73.61
2022-12-06T04:02:48.785Z,73.79
2022-12-06T04:06:52.373Z,74.29
2022-12-06T04:10:55.780Z,74.43
2022-12-06T04:14:58.866Z,74.21
2022-12-06T04:19:03.602Z,74.53
2022-12-06T04:23:07.169Z,74.57
2022-12-06T04:27:27.538Z,74.39
2022-12-06T04:31:48.879Z,74.28
2022-12-06T04:36:11.477Z,74.84
2022-12-06T04:40:15.200Z,74.60
2022-12-06T04:44:17.333Z,74.78
2022-12-06T04:48:20.842Z,74.44
2022-12-06T04:52:25.764Z,74.55
2022-12-06T04:56:29.522Z,74.93
2022-12-06T05:00:32.682Z,75.18
2022-12-06T05:04:36.747Z,74.61
2022-12-06T05:08:41.822Z,74.61
2022-12-06T05:12:45.354Z,75.16
2022-12-06T05:16:48.513Z,74.59
2022-12-06T05:20:52.292Z,74.96
2022-12-06T05:24:57.295Z,74.78
2022-12-06T05:29:00.978Z,74.81
2022-12-06T05:33:04.507Z,74.12
2022-12-06T05:37:07.911Z,74.51
2022-12-06T05:41:12.770Z,74.63
2022-12-06T05:45:16.321Z,74.19
2022-12-06T05:49:19.997Z,74.79
2022-12-06T05:53:23.683Z,74.87
2022-12-06T05:57:28.455Z,74.73
2022-12-06T06:01:31.976Z,74.53
2022-12-06T06:05:35.531Z,74.54
2022-12-06T06:09:38.965Z,74.54
2022-12-06T06:13:44.157Z,74.45
2022-12-06T06:17:47.272Z,74.39
2022-12-06T06:21:51.219Z,74.30
2022-12-06T06:25:55.199Z,74.54
2022-12-06T06:30:00.368Z,74.43
2022-12-06T06:34:04.350Z,74.55
2022-12-06T06:38:07.841Z,74.81
2022-12-06T06:42:11.338Z,74.34
2022-12-06T06:46:16.039Z,74.21
2022-12-06T06:50:19.753Z,74.21
2022-12-06T06:54:24.397Z,74.07
2022-12-06T06:58:27.515Z,73.98
2022-12-06T07:02:32.461Z,73.97
2022-12-06T07:06:36.197Z,74.32
2022-12-06T07:10:39.991Z,73.82
2022-12-06T07:14:43.081Z,74.41
2022-12-06T07:18:49.226Z,73.92
2022-12-06T07:22:52.792Z,74.27
2022-12-06T07:26:57.438Z,73.85
2022-12-06T07:31:08.234Z,74.20
2022-12-06T07:35:12.918Z,74.24
2022-12-06T07:39:16.475Z,74.32
2022-12-06T07:43:36.938Z,74.29
2022-12-06T07:47:42.420Z,74.32
2022-12-06T07:51:48.102Z,74.12
2022-12-06T07:55:51.319Z,73.98
2022-12-06T07:59:55.773Z,74.20
2022-12-06T08:04:02.038Z,73.88
2022-12-06T08:08:07.344Z,74.25
2022-12-06T08:12:12.082Z,74.27
2022-12-06T08:16:16.660Z,74.28
2022-12-06T08:20:19.819Z,73.20
2022-12-06T08:24:25.876Z,73.31
2022-12-06T08:28:30.837Z,73.09
2022-12-06T08:32:33.969Z,73.48
2022-12-06T08:36:40.122Z,73.02
2022-12-06T08:40:45.839Z,73.04
2022-12-06T08:44:51.958Z,72.88
2022-12-06T08:48:56.069Z,72.38
2022-12-06T08:52:59.345Z,72.03
2022-12-06T08:57:04.837Z,71.50
2022-12-06T09:01:14.503Z,72.05
2022-12-06T09:05:18.364Z,71.16
2022-12-06T09:09:22.228Z,71.67
2022-12-06T09:13:26.867Z,71.54
2022-12-06T09:17:30.469Z,71.34
2022-12-06T09:21:34.860Z,71.48
2022-12-06T09:25:38.456Z,71.03
2022-12-06T09:29:43.746Z,70.16
2022-12-06T09:33:47.001Z,69.80
2022-12-06T09:37:50.696Z,69.62
2022-12-06T09:42:29.324Z,70.39
2022-12-06T09:46:50.779Z,70.19
2022-12-06T09:51:05.517Z,69.69
2022-12-06T09:55:21.790Z,69.85
2022-12-06T09:59:34.089Z,69.83
2022-12-06T10:03:59.555Z,69.31
2022-12-06T10:08:18.075Z,69.63
2022-12-06T10:12:34.898Z,69.41
2022-12-06T10:16:53.562Z,69.19
2022-12-06T10:21:07.768Z,69.46
2022-12-06T10:25:17.832Z,68.94
2022-12-06T10:29:29.599Z,68.22
2022-12-06T10:33:42.401Z,68.41
2022-12-06T10:37:59.190Z,68.25
2022-12-06T10:42:08.245Z,68.41
2022-12-06T10:46:35.007Z,66.64
2022-12-06T10:50:42.484Z,67.30
2022-12-06T10:54:59.041Z,67.17
2022-12-06T10:59:25.630Z,67.82
2022-12-06T11:03:35.576Z,67.05
2022-12-06T11:07:45.292Z,67.44
2022-12-06T11:11:54.032Z,68.69
2022-12-06T11:16:03.237Z,66.70
2022-12-06T11:20:18.744Z,65.87
2022-12-06T11:24:29.435Z,66.51
2022-12-06T11:28:39.726Z,66.26
2022-12-06T11:32:44.696Z,64.97
2022-12-06T11:36:55.264Z,64.89
2022-12-06T11:41:00.660Z,65.78
2022-12-06T11:45:16.374Z,66.51
2022-12-06T11:49:30.785Z,66.13
2022-12-06T11:53:41.122Z,65.93
2022-12-06T11:57:50.632Z,65.49
2022-12-06T12:01:57.479Z,65.74
2022-12-06T12:06:18.181Z,65.88
2022-12-06T12:10:29.560Z,65.95
2022-12-06T12:14:39.402Z,65.98
2022-12-06T12:18:52.691Z,66.22
2022-12-06T12:23:01.081Z,66.16
2022-12-06T12:27:28.293Z,66.51
2022-12-06T12:31:32.799Z,66.74
2022-12-06T12:35:39.199Z,66.25
2022-12-06T12:39:55.822Z,67.38
2022-12-06T12:44:29.019Z,67.00
2022-12-06T12:48:28.703Z,67.31
2022-12-06T12:52:38.618Z,66.62
2022-12-06T12:56:42.340Z,66.98
2022-12-06T13:00:50.962Z,67.29
2022-12-06T13:09:30.036Z,66.73
2022-12-06T13:13:39.410Z,66.62
2022-12-06T13:17:46.294Z,66.80
2022-12-06T13:21:52.042Z,67.26
2022-12-06T13:26:07.066Z,67.80
2022-12-06T13:30:16.557Z,67.92
2022-12-06T13:34:27.746Z,68.09
2022-12-06T13:38:34.294Z,67.95
2022-12-06T13:42:48.260Z,68.61
2022-12-06T13:46:51.851Z,66.80
2022-12-06T13:50:56.863Z,67.23
2022-12-06T13:55:00.513Z,68.27
2022-12-06T13:59:27.181Z,67.87
2022-12-06T14:03:43.129Z,68.44
2022-12-06T14:07:46.423Z,68.54
2022-12-06T14:11:50.190Z,68.81
2022-12-06T14:15:55.209Z,68.59
2022-12-06T14:19:59.849Z,68.28
2022-12-06T14:24:04.716Z,68.63
2022-12-06T14:28:15.236Z,68.55
2022-12-06T14:32:20.466Z,69.11
2022-12-06T14:36:29.151Z,69.13
2022-12-06T14:40:53.648Z,68.48
2022-12-06T14:45:02.325Z,68.89
2022-12-06T14:49:31.456Z,68.98
2022-12-06T14:53:37.492Z,69.31
2022-12-06T14:57:50.094Z,68.91
2022-12-06T15:01:56.764Z,68.67
2022-12-06T15:06:21.287Z,69.49
2022-12-06T15:10:30.478Z,68.23
2022-12-06T15:14:49.249Z,69.01
2022-12-06T15:18:59.654Z,68.74
2022-12-06T15:23:19.769Z,68.71
2022-12-06T15:27:24.160Z,68.66
2022-12-06T15:31:29.558Z,69.62
2022-12-06T15:35:33.142Z,69.60
2022-12-06T15:39:38.003Z,69.30
2022-12-06T15:43:41.688Z,69.78
2022-12-06T15:47:45.541Z,69.76
2022-12-06T15:51:49.126Z,69.78
2022-12-06T15:55:54.485Z,70.28
2022-12-06T16:00:00.226Z,70.39
2022-12-06T16:04:05.433Z,69.99
2022-12-06T16:08:08.665Z,70.41
2022-12-06T16:12:13.851Z,70.56
2022-12-06T16:16:19.835Z,70.72
2022-12-06T16:20:35.857Z,70.58
2022-12-06T16:24:40.379Z,71.31
2022-12-06T16:28:45.169Z,71.34
2022-12-06T16:32:49.595Z,71.03
2022-12-06T16:36:58.514Z,71.44
2022-12-06T16:41:09.411Z,71.45
2022-12-06T16:45:15.841Z,71.05
2022-12-06T16:53:44.841Z,71.42
2022-12-06T16:57:48.434Z,71.84
2022-12-06T17:01:55.314Z,71.41
2022-12-06T17:05:58.785Z,71.36
2022-12-06T17:10:01.907Z,71.88
2022-12-06T17:14:06.515Z,71.95
2022-12-06T17:18:11.650Z,71.83
2022-12-06T17:22:16.968Z,72.15
2022-12-06T17:26:20.620Z,71.91
2022-12-06T17:30:23.959Z,72.06
2022-12-06T17:34:28.948Z,72.56
2022-12-06T17:38:32.359Z,72.33
2022-12-06T17:42:53.712Z,72.30
2022-12-06T17:46:57.433Z,72.71
2022-12-06T17:51:01.942Z,72.79
2022-12-06T17:55:05.764Z,73.21
2022-12-06T17:59:10.667Z,72.89
2022-12-06T18:03:17.023Z,73.48
2022-12-06T18:07:25.165Z,72.84
2022-12-06T18:11:30.137Z,72.96
2022-12-06T18:15:39.761Z,72.77
2022-12-06T18:19:47.176Z,72.97
2022-12-06T18:24:19.650Z,73.02
2022-12-06T18:28:15.718Z,73.07
2022-12-06T18:32:19.243Z,72.91
2022-12-06T18:36:23.048Z,73.11
2022-12-06T18:40:27.465Z,73.50
2022-12-06T18:44:30.940Z,73.26
2022-12-06T18:48:39.029Z,73.50
2022-12-06T18:52:42.869Z,73.72
2022-12-06T18:56:47.647Z,73.35
2022-12-06T19:00:51.284Z,72.78
2022-12-06T19:04:54.845Z,72.59
2022-12-06T19:09:01.429Z,72.82
2022-12-06T19:13:06.492Z,72.22
2022-12-06T19:17:16.007Z,72.23
2022-12-06T19:21:20.136Z,72.23
2022-12-06T19:25:23.931Z,72.30
2022-12-06T19:29:29.512Z,72.15
2022-12-06T19:33:39.031Z,72.54
2022-12-06T19:37:42.582Z,72.42
2022-12-06T19:42:03.588Z,72.03
2022-12-06T19:46:14.628Z,71.99
2022-12-06T19:50:19.273Z,72.29
2022-12-06T19:54:29.209Z,72.12
2022-12-06T19:58:32.888Z,71.67
2022-12-06T20:02:37.872Z,71.91
2022-12-06T20:06:42.199Z,72.00
2022-12-06T20:10:46.466Z,71.92
2022-12-06T20:14:50.609Z,71.66
2022-12-06T20:18:56.371Z,71.19
2022-12-06T20:22:59.564Z,70.85
2022-12-06T20:27:03.201Z,71.08
2022-12-06T20:31:12.715Z,71.13
2022-12-06T20:35:17.883Z,71.17
2022-12-06T20:39:23.019Z,71.38
2022-12-06T20:43:26.635Z,70.33
2022-12-06T20:47:30.193Z,70.42
2022-12-06T20:51:35.330Z,70.56
2022-12-06T20:55:38.935Z,70.56
2022-12-06T20:59:42.830Z,70.78
2022-12-06T21:03:46.364Z,69.89
2022-12-06T21:07:51.366Z,70.65
2022-12-06T21:11:54.928Z,70.21
2022-12-06T21:16:04.134Z,69.87
2022-12-06T21:20:08.877Z,70.42
2022-12-06T21:24:15.893Z,69.20
2022-12-06T21:28:22.232Z,69.33
2022-12-06T21:32:26.617Z,69.08
2022-12-06T21:36:29.908Z,69.25
2022-12-06T21:40:37.481Z,69.92
2022-12-06T21:44:41.001Z,68.99
2022-12-06T21:48:45.146Z,69.55
2022-12-06T21:52:50.553Z,69.59
2022-12-06T21:56:55.549Z,69.28
2022-12-06T22:01:06.126Z,69.04
2022-12-06T22:05:10.655Z,69.83
2022-12-06T22:09:14.255Z,69.11
2022-12-06T22:13:19.379Z,68.84
2022-12-06T22:17:23.553Z,68.97
2022-12-06T22:21:29.032Z,68.30
2022-12-06T22:25:32.715Z,69.38
2022-12-06T22:29:37.758Z,69.37
2022-12-06T22:33:41.321Z,70.06
2022-12-06T22:37:44.764Z,69.11
2022-12-06T22:41:48.421Z,69.05
2022-12-06T22:45:53.523Z,69.26
2022-12-06T22:49:56.998Z,69.43
2022-12-06T22:54:01.637Z,69.63
2022-12-06T22:58:05.175Z,69.35
2022-12-06T23:02:10.253Z,69.43
2022-12-06T23:06:13.671Z,69.78
2022-12-06T23:10:17.431Z,69.48
2022-12-06T23:14:20.995Z,70.42
2022-12-06T23:18:26.466Z,70.30
2022-12-06T23:22:32.969Z,69.99
2022-12-06T23:26:37.993Z,70.31
2022-12-06T23:30:41.953Z,70.38
2022-12-06T23:34:46.322Z,70.21
2022-12-06T23:38:49.982Z,69.76
2022-12-06T23:42:53.653Z,69.92
2022-12-06T23:46:57.295Z,70.02
2022-12-06T23:51:03.323Z,70.16
2022-12-06T23:55:07.652Z,69.53
2022-12-06T23:59:14.914Z,69.70
